sensor_id;sensor_type;location;lat;lon;timestamp;P1;durP1;ratioP1;P2;durP2;ratioP2
78589;SDS011;67888;50.228;7.828;2023-09-18T00:04:57;12.03;;;5.70;;
78589;SDS011;67888;50.228;7.828;2023-09-18T00:09:58;11.75;;;5.65;;
78589;SDS011;67888;50.228;7.828;2023-09-18T00:14:59;11.50;;;5.20;;
78589;SDS011;67888;50.228;7.828;2023-09-18T00:19:59;13.67;;;5.27;;
78589;SDS011;67888;50.228;7.828;2023-09-18T00:25:00;14.63;;;5.97;;
78589;SDS011;67888;50.228;7.828;2023-09-18T00:30:03;11.68;;;5.88;;
78589;SDS011;67888;50.228;7.828;2023-09-18T00:35:04;12.57;;;5.47;;
78589;SDS011;67888;50.228;7.828;2023-09-18T00:40:05;11.25;;;5.65;;
78589;SDS011;67888;50.228;7.828;2023-09-18T00:45:07;13.23;;;5.27;;
78589;SDS011;67888;50.228;7.828;2023-09-18T00:50:09;13.23;;;4.67;;
78589;SDS011;67888;50.228;7.828;2023-09-18T00:55:13;10.30;;;5.38;;
78589;SDS011;67888;50.228;7.828;2023-09-18T01:00:13;10.10;;;4.90;;
78589;SDS011;67888;50.228;7.828;2023-09-18T01:05:17;13.90;;;5.10;;
78589;SDS011;67888;50.228;7.828;2023-09-18T01:10:21;12.73;;;5.55;;
78589;SDS011;67888;50.228;7.828;2023-09-18T01:15:30;12.38;;;5.50;;
78589;SDS011;67888;50.228;7.828;2023-09-18T01:20:35;10.77;;;4.70;;
78589;SDS011;67888;50.228;7.828;2023-09-18T01:25:36;14.23;;;5.43;;
78589;SDS011;67888;50.228;7.828;2023-09-18T01:30:36;10.57;;;5.40;;
78589;SDS011;67888;50.228;7.828;2023-09-18T01:35:38;13.40;;;5.83;;
78589;SDS011;67888;50.228;7.828;2023-09-18T01:40:40;14.05;;;7.20;;
78589;SDS011;67888;50.228;7.828;2023-09-18T01:45:41;13.18;;;6.43;;
78589;SDS011;67888;50.228;7.828;2023-09-18T01:50:43;12.93;;;3.90;;
78589;SDS011;67888;50.228;7.828;2023-09-18T01:55:43;9.97;;;4.17;;
78589;SDS011;67888;50.228;7.828;2023-09-18T02:00:44;11.27;;;4.38;;
78589;SDS011;67888;50.228;7.828;2023-09-18T02:05:44;11.57;;;4.37;;
78589;SDS011;67888;50.228;7.828;2023-09-18T02:10:45;10.87;;;4.57;;
78589;SDS011;67888;50.228;7.828;2023-09-18T02:15:45;13.33;;;4.83;;
78589;SDS011;67888;50.228;7.828;2023-09-18T02:20:45;10.87;;;4.97;;
78589;SDS011;67888;50.228;7.828;2023-09-18T02:25:55;10.77;;;4.87;;
78589;SDS011;67888;50.228;7.828;2023-09-18T02:30:56;12.07;;;5.28;;
78589;SDS011;67888;50.228;7.828;2023-09-18T02:35:56;14.63;;;5.67;;
78589;SDS011;67888;50.228;7.828;2023-09-18T02:40:57;14.70;;;5.53;;
78589;SDS011;67888;50.228;7.828;2023-09-18T02:45:58;11.07;;;5.00;;
78589;SDS011;67888;50.228;7.828;2023-09-18T02:51:01;10.67;;;5.00;;
78589;SDS011;67888;50.228;7.828;2023-09-18T02:56:02;14.93;;;4.93;;
78589;SDS011;67888;50.228;7.828;2023-09-18T03:01:03;14.03;;;5.27;;
78589;SDS011;67888;50.228;7.828;2023-09-18T03:06:05;12.90;;;4.68;;
78589;SDS011;67888;50.228;7.828;2023-09-18T03:11:13;12.40;;;4.70;;
78589;SDS011;67888;50.228;7.828;2023-09-18T03:16:14;11.43;;;4.75;;
78589;SDS011;67888;50.228;7.828;2023-09-18T03:21:14;11.40;;;4.50;;
78589;SDS011;67888;50.228;7.828;2023-09-18T03:26:15;13.30;;;4.47;;
78589;SDS011;67888;50.228;7.828;2023-09-18T03:31:15;11.18;;;4.82;;
78589;SDS011;67888;50.228;7.828;2023-09-18T03:36:16;10.23;;;4.93;;
78589;SDS011;67888;50.228;7.828;2023-09-18T03:41:16;15.90;;;4.47;;
78589;SDS011;67888;50.228;7.828;2023-09-18T03:46:16;11.90;;;4.60;;
78589;SDS011;67888;50.228;7.828;2023-09-18T03:51:17;13.43;;;4.30;;
78589;SDS011;67888;50.228;7.828;2023-09-18T03:56:18;11.10;;;4.60;;
78589;SDS011;67888;50.228;7.828;2023-09-18T04:01:19;9.77;;;4.15;;
78589;SDS011;67888;50.228;7.828;2023-09-18T04:06:20;9.63;;;4.00;;
78589;SDS011;67888;50.228;7.828;2023-09-18T04:11:21;12.63;;;4.30;;
78589;SDS011;67888;50.228;7.828;2023-09-18T04:16:26;12.75;;;4.30;;
78589;SDS011;67888;50.228;7.828;2023-09-18T04:21:27;14.50;;;4.53;;
78589;SDS011;67888;50.228;7.828;2023-09-18T04:26:29;13.20;;;4.70;;
78589;SDS011;67888;50.228;7.828;2023-09-18T04:31:30;15.07;;;4.70;;
78589;SDS011;67888;50.228;7.828;2023-09-18T04:36:31;12.98;;;4.65;;
78589;SDS011;67888;50.228;7.828;2023-09-18T04:41:32;12.53;;;4.37;;
78589;SDS011;67888;50.228;7.828;2023-09-18T04:46:33;12.43;;;4.45;;
78589;SDS011;67888;50.228;7.828;2023-09-18T04:51:37;13.87;;;4.60;;
78589;SDS011;67888;50.228;7.828;2023-09-18T04:56:39;15.18;;;4.72;;
78589;SDS011;67888;50.228;7.828;2023-09-18T05:01:39;13.53;;;4.60;;
78589;SDS011;67888;50.228;7.828;2023-09-18T05:06:40;14.67;;;4.00;;
78589;SDS011;67888;50.228;7.828;2023-09-18T05:11:42;9.82;;;3.50;;
78589;SDS011;67888;50.228;7.828;2023-09-18T05:16:42;12.50;;;3.47;;
78589;SDS011;67888;50.228;7.828;2023-09-18T05:21:42;15.53;;;3.50;;
78589;SDS011;67888;50.228;7.828;2023-09-18T05:26:43;13.00;;;3.00;;
78589;SDS011;67888;50.228;7.828;2023-09-18T05:31:43;12.70;;;3.30;;
78589;SDS011;67888;50.228;7.828;2023-09-18T05:36:45;9.52;;;3.20;;
78589;SDS011;67888;50.228;7.828;2023-09-18T05:41:46;10.53;;;2.90;;
78589;SDS011;67888;50.228;7.828;2023-09-18T05:46:46;11.27;;;3.15;;
78589;SDS011;67888;50.228;7.828;2023-09-18T05:51:47;14.03;;;3.20;;
78589;SDS011;67888;50.228;7.828;2023-09-18T05:56:48;12.18;;;3.30;;
78589;SDS011;67888;50.228;7.828;2023-09-18T06:01:49;12.20;;;3.20;;
78589;SDS011;67888;50.228;7.828;2023-09-18T06:06:49;10.03;;;2.87;;
78589;SDS011;67888;50.228;7.828;2023-09-18T06:11:51;15.40;;;3.27;;
78589;SDS011;67888;50.228;7.828;2023-09-18T06:16:51;11.83;;;2.77;;
78589;SDS011;67888;50.228;7.828;2023-09-18T06:21:52;11.07;;;2.90;;
78589;SDS011;67888;50.228;7.828;2023-09-18T06:26:52;10.03;;;3.00;;
78589;SDS011;67888;50.228;7.828;2023-09-18T06:31:53;13.27;;;2.67;;
78589;SDS011;67888;50.228;7.828;2023-09-18T06:36:53;9.67;;;2.57;;
78589;SDS011;67888;50.228;7.828;2023-09-18T06:41:54;6.97;;;2.37;;
78589;SDS011;67888;50.228;7.828;2023-09-18T06:46:54;10.43;;;2.60;;
78589;SDS011;67888;50.228;7.828;2023-09-18T06:51:55;9.60;;;2.80;;
78589;SDS011;67888;50.228;7.828;2023-09-18T06:56:55;8.67;;;2.70;;
78589;SDS011;67888;50.228;7.828;2023-09-18T07:01:55;11.43;;;2.60;;
78589;SDS011;67888;50.228;7.828;2023-09-18T07:06:56;9.80;;;2.60;;
78589;SDS011;67888;50.228;7.828;2023-09-18T07:11:56;10.50;;;2.67;;
78589;SDS011;67888;50.228;7.828;2023-09-18T07:16:57;12.13;;;2.90;;
78589;SDS011;67888;50.228;7.828;2023-09-18T07:21:57;10.00;;;2.70;;
78589;SDS011;67888;50.228;7.828;2023-09-18T07:26:59;10.48;;;3.20;;
78589;SDS011;67888;50.228;7.828;2023-09-18T07:32:00;7.73;;;2.77;;
78589;SDS011;67888;50.228;7.828;2023-09-18T07:37:01;9.55;;;3.00;;
78589;SDS011;67888;50.228;7.828;2023-09-18T07:42:02;7.23;;;2.40;;
78589;SDS011;67888;50.228;7.828;2023-09-18T07:47:04;9.60;;;3.20;;
78589;SDS011;67888;50.228;7.828;2023-09-18T07:52:04;9.67;;;2.70;;
78589;SDS011;67888;50.228;7.828;2023-09-18T07:57:05;10.65;;;3.30;;
78589;SDS011;67888;50.228;7.828;2023-09-18T08:02:09;8.23;;;2.70;;
78589;SDS011;67888;50.228;7.828;2023-09-18T08:07:10;8.55;;;3.25;;
78589;SDS011;67888;50.228;7.828;2023-09-18T08:12:12;7.63;;;2.47;;
78589;SDS011;67888;50.228;7.828;2023-09-18T08:17:13;9.80;;;2.92;;
78589;SDS011;67888;50.228;7.828;2023-09-18T08:22:13;8.23;;;2.60;;
78589;SDS011;67888;50.228;7.828;2023-09-18T08:27:15;8.00;;;2.40;;
78589;SDS011;67888;50.228;7.828;2023-09-18T08:32:16;8.38;;;2.90;;
78589;SDS011;67888;50.228;7.828;2023-09-18T08:37:17;7.83;;;2.87;;
78589;SDS011;67888;50.228;7.828;2023-09-18T08:42:17;10.10;;;3.50;;
78589;SDS011;67888;50.228;7.828;2023-09-18T08:47:21;7.15;;;2.45;;
78589;SDS011;67888;50.228;7.828;2023-09-18T08:52:22;7.15;;;2.50;;
78589;SDS011;67888;50.228;7.828;2023-09-18T08:57:24;9.00;;;2.60;;
78589;SDS011;67888;50.228;7.828;2023-09-18T09:02:27;9.67;;;2.70;;
78589;SDS011;67888;50.228;7.828;2023-09-18T09:07:27;8.97;;;2.80;;
78589;SDS011;67888;50.228;7.828;2023-09-18T09:12:51;9.23;;;3.85;;
78589;SDS011;67888;50.228;7.828;2023-09-18T09:18:03;8.18;;;3.10;;
78589;SDS011;67888;50.228;7.828;2023-09-18T09:23:06;7.10;;;2.60;;
78589;SDS011;67888;50.228;7.828;2023-09-18T09:28:09;9.93;;;3.35;;
78589;SDS011;67888;50.228;7.828;2023-09-18T09:33:11;8.27;;;3.10;;
78589;SDS011;67888;50.228;7.828;2023-09-18T09:38:12;9.93;;;3.08;;
78589;SDS011;67888;50.228;7.828;2023-09-18T09:43:16;5.93;;;2.90;;
78589;SDS011;67888;50.228;7.828;2023-09-18T09:48:16;7.73;;;3.20;;
78589;SDS011;67888;50.228;7.828;2023-09-18T09:53:17;6.63;;;2.97;;
78589;SDS011;67888;50.228;7.828;2023-09-18T09:58:18;7.50;;;3.30;;
78589;SDS011;67888;50.228;7.828;2023-09-18T10:03:27;7.47;;;3.03;;
78589;SDS011;67888;50.228;7.828;2023-09-18T10:08:27;7.80;;;3.20;;
78589;SDS011;67888;50.228;7.828;2023-09-18T10:13:40;7.93;;;2.90;;
78589;SDS011;67888;50.228;7.828;2023-09-18T10:24:28;7.35;;;3.03;;
78589;SDS011;67888;50.228;7.828;2023-09-18T10:29:34;8.53;;;3.00;;
78589;SDS011;67888;50.228;7.828;2023-09-18T10:34:36;6.55;;;2.83;;
78589;SDS011;67888;50.228;7.828;2023-09-18T10:39:37;6.77;;;2.73;;
78589;SDS011;67888;50.228;7.828;2023-09-18T10:44:39;8.30;;;2.60;;
78589;SDS011;67888;50.228;7.828;2023-09-18T10:49:40;7.37;;;2.63;;
78589;SDS011;67888;50.228;7.828;2023-09-18T10:54:41;6.47;;;2.60;;
78589;SDS011;67888;50.228;7.828;2023-09-18T10:59:45;7.40;;;3.00;;
78589;SDS011;67888;50.228;7.828;2023-09-18T11:04:46;9.00;;;3.23;;
78589;SDS011;67888;50.228;7.828;2023-09-18T11:09:48;8.30;;;3.00;;
78589;SDS011;67888;50.228;7.828;2023-09-18T11:14:50;7.93;;;3.05;;
78589;SDS011;67888;50.228;7.828;2023-09-18T11:30:37;7.03;;;2.70;;
78589;SDS011;67888;50.228;7.828;2023-09-18T11:35:45;7.38;;;2.60;;
78589;SDS011;67888;50.228;7.828;2023-09-18T11:40:52;6.60;;;2.70;;
78589;SDS011;67888;50.228;7.828;2023-09-18T11:45:54;6.47;;;2.70;;
78589;SDS011;67888;50.228;7.828;2023-09-18T11:50:56;7.05;;;2.60;;
78589;SDS011;67888;50.228;7.828;2023-09-18T11:55:58;8.23;;;2.43;;
78589;SDS011;67888;50.228;7.828;2023-09-18T12:00:59;6.17;;;2.33;;
78589;SDS011;67888;50.228;7.828;2023-09-18T12:06:12;5.43;;;2.30;;
78589;SDS011;67888;50.228;7.828;2023-09-18T12:11:13;5.67;;;2.40;;
78589;SDS011;67888;50.228;7.828;2023-09-18T12:16:19;6.65;;;2.20;;
78589;SDS011;67888;50.228;7.828;2023-09-18T12:21:20;6.07;;;2.10;;
78589;SDS011;67888;50.228;7.828;2023-09-18T12:26:20;5.60;;;2.40;;
78589;SDS011;67888;50.228;7.828;2023-09-18T12:31:20;4.77;;;2.20;;
78589;SDS011;67888;50.228;7.828;2023-09-18T12:36:21;7.07;;;2.57;;
78589;SDS011;67888;50.228;7.828;2023-09-18T12:41:21;5.17;;;2.10;;
78589;SDS011;67888;50.228;7.828;2023-09-18T12:46:24;4.80;;;2.30;;
78589;SDS011;67888;50.228;7.828;2023-09-18T12:51:31;6.95;;;2.38;;
78589;SDS011;67888;50.228;7.828;2023-09-18T12:56:32;6.50;;;2.20;;
78589;SDS011;67888;50.228;7.828;2023-09-18T13:01:32;5.27;;;2.50;;
78589;SDS011;67888;50.228;7.828;2023-09-18T13:06:33;5.18;;;2.40;;
78589;SDS011;67888;50.228;7.828;2023-09-18T13:11:33;7.93;;;2.53;;
78589;SDS011;67888;50.228;7.828;2023-09-18T13:16:52;7.43;;;2.30;;
78589;SDS011;67888;50.228;7.828;2023-09-18T13:21:53;7.50;;;2.50;;
78589;SDS011;67888;50.228;7.828;2023-09-18T13:26:53;7.83;;;2.60;;
78589;SDS011;67888;50.228;7.828;2023-09-18T13:31:54;5.03;;;2.42;;
78589;SDS011;67888;50.228;7.828;2023-09-18T13:36:54;6.47;;;2.87;;
78589;SDS011;67888;50.228;7.828;2023-09-18T13:41:55;7.00;;;2.50;;
78589;SDS011;67888;50.228;7.828;2023-09-18T13:46:56;8.43;;;2.70;;
78589;SDS011;67888;50.228;7.828;2023-09-18T13:51:57;7.20;;;2.63;;
78589;SDS011;67888;50.228;7.828;2023-09-18T13:56:57;5.13;;;2.80;;
78589;SDS011;67888;50.228;7.828;2023-09-18T14:01:58;7.30;;;3.43;;
78589;SDS011;67888;50.228;7.828;2023-09-18T14:06:58;6.37;;;2.97;;
78589;SDS011;67888;50.228;7.828;2023-09-18T14:11:59;7.90;;;4.10;;
78589;SDS011;67888;50.228;7.828;2023-09-18T14:16:59;7.82;;;3.45;;
78589;SDS011;67888;50.228;7.828;2023-09-18T14:22:00;4.57;;;2.10;;
78589;SDS011;67888;50.228;7.828;2023-09-18T14:27:04;6.55;;;3.38;;
78589;SDS011;67888;50.228;7.828;2023-09-18T14:32:05;7.03;;;3.17;;
78589;SDS011;67888;50.228;7.828;2023-09-18T14:37:08;6.53;;;3.67;;
78589;SDS011;67888;50.228;7.828;2023-09-18T14:42:09;6.18;;;2.40;;
78589;SDS011;67888;50.228;7.828;2023-09-18T14:47:13;9.23;;;2.90;;
78589;SDS011;67888;50.228;7.828;2023-09-18T14:52:14;5.40;;;2.53;;
78589;SDS011;67888;50.228;7.828;2023-09-18T14:57:16;5.30;;;2.10;;
78589;SDS011;67888;50.228;7.828;2023-09-18T15:02:16;5.30;;;2.20;;
78589;SDS011;67888;50.228;7.828;2023-09-18T15:07:17;5.97;;;2.37;;
78589;SDS011;67888;50.228;7.828;2023-09-18T15:12:18;5.68;;;3.70;;
78589;SDS011;67888;50.228;7.828;2023-09-18T15:17:19;8.97;;;3.73;;
78589;SDS011;67888;50.228;7.828;2023-09-18T15:22:19;6.60;;;3.73;;
78589;SDS011;67888;50.228;7.828;2023-09-18T15:27:22;5.60;;;3.42;;
78589;SDS011;67888;50.228;7.828;2023-09-18T15:32:22;4.63;;;1.70;;
78589;SDS011;67888;50.228;7.828;2023-09-18T15:37:22;5.27;;;1.90;;
78589;SDS011;67888;50.228;7.828;2023-09-18T15:42:23;4.90;;;1.90;;
78589;SDS011;67888;50.228;7.828;2023-09-18T15:47:23;4.67;;;1.80;;
78589;SDS011;67888;50.228;7.828;2023-09-18T15:52:24;3.63;;;1.60;;
78589;SDS011;67888;50.228;7.828;2023-09-18T15:57:24;3.97;;;1.80;;
78589;SDS011;67888;50.228;7.828;2023-09-18T16:02:26;4.30;;;1.80;;
78589;SDS011;67888;50.228;7.828;2023-09-18T16:07:27;8.10;;;1.80;;
78589;SDS011;67888;50.228;7.828;2023-09-18T16:12:27;5.63;;;2.07;;
78589;SDS011;67888;50.228;7.828;2023-09-18T16:17:29;5.88;;;2.47;;
78589;SDS011;67888;50.228;7.828;2023-09-18T16:22:29;5.73;;;2.20;;
78589;SDS011;67888;50.228;7.828;2023-09-18T16:27:31;6.53;;;2.20;;
78589;SDS011;67888;50.228;7.828;2023-09-18T16:32:31;5.10;;;2.07;;
78589;SDS011;67888;50.228;7.828;2023-09-18T16:37:32;6.33;;;2.07;;
78589;SDS011;67888;50.228;7.828;2023-09-18T16:42:32;6.57;;;2.10;;
78589;SDS011;67888;50.228;7.828;2023-09-18T16:47:33;5.67;;;2.10;;
78589;SDS011;67888;50.228;7.828;2023-09-18T16:52:35;6.28;;;2.25;;
78589;SDS011;67888;50.228;7.828;2023-09-18T16:57:36;5.85;;;1.90;;
78589;SDS011;67888;50.228;7.828;2023-09-18T17:02:37;7.20;;;2.10;;
78589;SDS011;67888;50.228;7.828;2023-09-18T17:07:37;5.73;;;2.10;;
78589;SDS011;67888;50.228;7.828;2023-09-18T17:12:37;5.10;;;2.20;;
78589;SDS011;67888;50.228;7.828;2023-09-18T17:17:57;4.55;;;2.20;;
78589;SDS011;67888;50.228;7.828;2023-09-18T17:23:00;8.48;;;2.60;;
78589;SDS011;67888;50.228;7.828;2023-09-18T17:28:00;5.83;;;1.90;;
78589;SDS011;67888;50.228;7.828;2023-09-18T17:33:04;8.60;;;2.20;;
78589;SDS011;67888;50.228;7.828;2023-09-18T17:38:04;6.30;;;2.20;;
78589;SDS011;67888;50.228;7.828;2023-09-18T17:43:06;7.80;;;2.40;;
78589;SDS011;67888;50.228;7.828;2023-09-18T17:48:06;7.77;;;2.20;;
78589;SDS011;67888;50.228;7.828;2023-09-18T17:53:08;7.32;;;2.00;;
78589;SDS011;67888;50.228;7.828;2023-09-18T17:58:08;5.60;;;1.87;;
78589;SDS011;67888;50.228;7.828;2023-09-18T18:03:09;6.20;;;1.93;;
78589;SDS011;67888;50.228;7.828;2023-09-18T18:08:11;7.75;;;2.08;;
78589;SDS011;67888;50.228;7.828;2023-09-18T18:13:12;5.57;;;1.70;;
78589;SDS011;67888;50.228;7.828;2023-09-18T18:18:12;4.18;;;1.50;;
78589;SDS011;67888;50.228;7.828;2023-09-18T18:23:13;5.57;;;1.93;;
78589;SDS011;67888;50.228;7.828;2023-09-18T18:28:15;6.10;;;1.73;;
78589;SDS011;67888;50.228;7.828;2023-09-18T18:33:19;5.07;;;1.80;;
78589;SDS011;67888;50.228;7.828;2023-09-18T18:38:20;4.75;;;1.35;;
78589;SDS011;67888;50.228;7.828;2023-09-18T18:43:21;4.77;;;1.53;;
78589;SDS011;67888;50.228;7.828;2023-09-18T18:48:22;5.80;;;1.70;;
78589;SDS011;67888;50.228;7.828;2023-09-18T18:53:23;5.57;;;1.80;;
78589;SDS011;67888;50.228;7.828;2023-09-18T18:58:23;4.40;;;1.70;;
78589;SDS011;67888;50.228;7.828;2023-09-18T19:03:24;4.30;;;1.70;;
78589;SDS011;67888;50.228;7.828;2023-09-18T19:08:26;5.43;;;1.73;;
78589;SDS011;67888;50.228;7.828;2023-09-18T19:13:27;3.92;;;1.45;;
78589;SDS011;67888;50.228;7.828;2023-09-18T19:18:27;4.73;;;1.70;;
78589;SDS011;67888;50.228;7.828;2023-09-18T19:23:31;4.63;;;1.80;;
78589;SDS011;67888;50.228;7.828;2023-09-18T19:28:34;4.75;;;1.70;;
78589;SDS011;67888;50.228;7.828;2023-09-18T19:33:34;6.00;;;1.73;;
78589;SDS011;67888;50.228;7.828;2023-09-18T19:38:38;5.30;;;1.65;;
78589;SDS011;67888;50.228;7.828;2023-09-18T19:43:38;2.87;;;1.20;;
78589;SDS011;67888;50.228;7.828;2023-09-18T19:48:39;4.50;;;1.77;;
78589;SDS011;67888;50.228;7.828;2023-09-18T19:53:39;4.00;;;1.50;;
78589;SDS011;67888;50.228;7.828;2023-09-18T19:58:40;4.40;;;1.73;;
78589;SDS011;67888;50.228;7.828;2023-09-18T20:03:41;2.83;;;1.20;;
78589;SDS011;67888;50.228;7.828;2023-09-18T20:08:41;2.57;;;1.20;;
78589;SDS011;67888;50.228;7.828;2023-09-18T20:13:43;4.72;;;1.40;;
78589;SDS011;67888;50.228;7.828;2023-09-18T20:18:43;3.63;;;1.30;;
78589;SDS011;67888;50.228;7.828;2023-09-18T20:23:44;5.43;;;1.53;;
78589;SDS011;67888;50.228;7.828;2023-09-18T20:28:44;4.83;;;1.50;;
78589;SDS011;67888;50.228;7.828;2023-09-18T20:33:45;5.50;;;1.33;;
78589;SDS011;67888;50.228;7.828;2023-09-18T20:38:45;5.07;;;1.60;;
78589;SDS011;67888;50.228;7.828;2023-09-18T20:43:46;4.57;;;1.47;;
78589;SDS011;67888;50.228;7.828;2023-09-18T20:48:47;4.32;;;1.60;;
78589;SDS011;67888;50.228;7.828;2023-09-18T20:53:48;5.37;;;1.47;;
78589;SDS011;67888;50.228;7.828;2023-09-18T20:58:48;4.18;;;1.20;;
78589;SDS011;67888;50.228;7.828;2023-09-18T21:03:55;3.47;;;1.40;;
78589;SDS011;67888;50.228;7.828;2023-09-18T21:08:56;4.20;;;1.40;;
78589;SDS011;67888;50.228;7.828;2023-09-18T21:13:57;4.27;;;1.50;;
78589;SDS011;67888;50.228;7.828;2023-09-18T21:18:57;2.90;;;1.10;;
78589;SDS011;67888;50.228;7.828;2023-09-18T21:23:57;3.57;;;1.00;;
78589;SDS011;67888;50.228;7.828;2023-09-18T21:28:58;6.07;;;1.03;;
78589;SDS011;67888;50.228;7.828;2023-09-18T21:33:58;3.33;;;1.43;;
78589;SDS011;67888;50.228;7.828;2023-09-18T21:38:59;3.57;;;1.17;;
78589;SDS011;67888;50.228;7.828;2023-09-18T21:43:59;3.73;;;1.00;;
78589;SDS011;67888;50.228;7.828;2023-09-18T21:49:00;4.33;;;1.33;;
78589;SDS011;67888;50.228;7.828;2023-09-18T21:54:00;4.40;;;1.40;;
78589;SDS011;67888;50.228;7.828;2023-09-18T21:59:01;3.83;;;1.60;;
78589;SDS011;67888;50.228;7.828;2023-09-18T22:04:03;7.05;;;1.60;;
78589;SDS011;67888;50.228;7.828;2023-09-18T22:09:06;5.28;;;1.50;;
78589;SDS011;67888;50.228;7.828;2023-09-18T22:14:07;5.53;;;1.70;;
78589;SDS011;67888;50.228;7.828;2023-09-18T22:19:10;6.10;;;1.60;;
78589;SDS011;67888;50.228;7.828;2023-09-18T22:24:11;8.13;;;1.70;;
78589;SDS011;67888;50.228;7.828;2023-09-18T22:29:12;7.73;;;1.60;;
78589;SDS011;67888;50.228;7.828;2023-09-18T22:34:15;5.45;;;1.60;;
78589;SDS011;67888;50.228;7.828;2023-09-18T22:55:48;5.03;;;1.50;;
78589;SDS011;67888;50.228;7.828;2023-09-18T23:00:50;4.50;;;1.48;;
78589;SDS011;67888;50.228;7.828;2023-09-18T23:05:52;4.80;;;1.90;;
78589;SDS011;67888;50.228;7.828;2023-09-18T23:10:54;5.03;;;1.50;;
78589;SDS011;67888;50.228;7.828;2023-09-18T23:15:59;4.07;;;1.70;;
78589;SDS011;67888;50.228;7.828;2023-09-18T23:20:59;4.13;;;1.55;;
78589;SDS011;67888;50.228;7.828;2023-09-18T23:26:00;5.57;;;1.70;;
78589;SDS011;67888;50.228;7.828;2023-09-18T23:31:01;4.43;;;1.73;;
78589;SDS011;67888;50.228;7.828;2023-09-18T23:36:02;4.70;;;1.70;;
78589;SDS011;67888;50.228;7.828;2023-09-18T23:41:03;5.47;;;1.60;;
78589;SDS011;67888;50.228;7.828;2023-09-18T23:46:06;5.05;;;1.98;;
78589;SDS011;67888;50.228;7.828;2023-09-18T23:51:10;5.40;;;2.00;;
78589;SDS011;67888;50.228;7.828;2023-09-18T23:56:11;4.03;;;1.83;;
